sensor_id;sensor_type;location;lat;lon;timestamp;pressure;altitude;pressure_sealevel;temperature;humidity
22181;BME280;11256;50.830;12.834;2023-01-29T00:00:39;98743.69;;;-0.83;78.28
22181;BME280;11256;50.830;12.834;2023-01-29T00:05:39;98749.00;;;-0.83;78.40
22181;BME280;11256;50.830;12.834;2023-01-29T00:10:40;98733.44;;;-0.86;78.26
22181;BME280;11256;50.830;12.834;2023-01-29T00:15:40;98741.03;;;-0.83;78.01
22181;BME280;11256;50.830;12.834;2023-01-29T00:20:42;98729.75;;;-0.85;78.13
22181;BME280;11256;50.830;12.834;2023-01-29T00:25:43;98720.75;;;-0.84;78.16
22181;BME280;11256;50.830;12.834;2023-01-29T00:30:44;98717.47;;;-0.86;78.17
22181;BME280;11256;50.830;12.834;2023-01-29T00:35:44;98712.16;;;-0.86;78.08
22181;BME280;11256;50.830;12.834;2023-01-29T00:40:44;98711.78;;;-0.83;77.69
22181;BME280;11256;50.830;12.834;2023-01-29T00:46:03;98705.63;;;-0.83;78.00
22181;BME280;11256;50.830;12.834;2023-01-29T00:51:05;98696.19;;;-0.86;77.92
22181;BME280;11256;50.830;12.834;2023-01-29T00:56:05;98707.63;;;-0.85;77.71
22181;BME280;11256;50.830;12.834;2023-01-29T01:01:06;98699.47;;;-0.84;77.40
22181;BME280;11256;50.830;12.834;2023-01-29T01:06:09;98707.63;;;-0.85;77.70
22181;BME280;11256;50.830;12.834;2023-01-29T01:11:09;98699.75;;;-0.93;77.57
22181;BME280;11256;50.830;12.834;2023-01-29T01:16:12;98699.94;;;-0.95;77.70
22181;BME280;11256;50.830;12.834;2023-01-29T01:21:12;98714.34;;;-0.89;77.53
22181;BME280;11256;50.830;12.834;2023-01-29T01:26:13;98692.34;;;-0.98;77.55
22181;BME280;11256;50.830;12.834;2023-01-29T01:31:13;98706.38;;;-0.89;77.49
22181;BME280;11256;50.830;12.834;2023-01-29T01:36:14;98692.88;;;-0.88;77.35
22181;BME280;11256;50.830;12.834;2023-01-29T01:41:18;98704.53;;;-0.89;77.41
22181;BME280;11256;50.830;12.834;2023-01-29T01:46:20;98696.94;;;-0.92;77.37
22181;BME280;11256;50.830;12.834;2023-01-29T01:51:22;98687.84;;;-0.97;77.37
22181;BME280;11256;50.830;12.834;2023-01-29T01:56:27;98695.25;;;-0.93;77.20
22181;BME280;11256;50.830;12.834;2023-01-29T02:01:28;98692.88;;;-0.88;77.09
22181;BME280;11256;50.830;12.834;2023-01-29T02:06:29;98687.56;;;-0.88;76.83
22181;BME280;11256;50.830;12.834;2023-01-29T02:11:49;98673.44;;;-1.03;76.71
22181;BME280;11256;50.830;12.834;2023-01-29T02:16:50;98682.50;;;-0.97;76.96
22181;BME280;11256;50.830;12.834;2023-01-29T02:22:05;98682.41;;;-1.04;77.05
22181;BME280;11256;50.830;12.834;2023-01-29T02:27:12;98676.19;;;-1.11;77.34
22181;BME280;11256;50.830;12.834;2023-01-29T02:32:22;98658.03;;;-1.22;76.81
22181;BME280;11256;50.830;12.834;2023-01-29T02:37:33;98664.06;;;-1.28;77.28
22181;BME280;11256;50.830;12.834;2023-01-29T02:43:00;98666.44;;;-1.33;77.33
22181;BME280;11256;50.830;12.834;2023-01-29T02:48:02;98667.34;;;-1.40;77.31
22181;BME280;11256;50.830;12.834;2023-01-29T02:53:14;98673.94;;;-1.51;77.80
22181;BME280;11256;50.830;12.834;2023-01-29T02:58:26;98676.38;;;-1.64;77.58
22181;BME280;11256;50.830;12.834;2023-01-29T03:03:39;98687.19;;;-1.65;77.81
22181;BME280;11256;50.830;12.834;2023-01-29T03:08:46;98679.75;;;-1.70;77.86
22181;BME280;11256;50.830;12.834;2023-01-29T03:13:56;98682.81;;;-1.81;77.93
22181;BME280;11256;50.830;12.834;2023-01-29T03:19:07;98672.91;;;-1.87;77.95
22181;BME280;11256;50.830;12.834;2023-01-29T03:24:11;98684.19;;;-1.85;77.80
22181;BME280;11256;50.830;12.834;2023-01-29T03:29:34;98667.00;;;-1.97;77.94
22181;BME280;11256;50.830;12.834;2023-01-29T03:35:01;98687.44;;;-1.97;77.76
22181;BME280;11256;50.830;12.834;2023-01-29T03:40:04;98695.91;;;-2.02;77.97
22181;BME280;11256;50.830;12.834;2023-01-29T03:45:26;98686.47;;;-2.04;78.12
22181;BME280;11256;50.830;12.834;2023-01-29T03:50:53;98685.38;;;-2.10;78.08
22181;BME280;11256;50.830;12.834;2023-01-29T04:06:15;98684.22;;;-2.15;77.79
22181;BME280;11256;50.830;12.834;2023-01-29T04:11:26;98661.25;;;-2.23;77.45
22181;BME280;11256;50.830;12.834;2023-01-29T04:16:32;98665.38;;;-2.20;77.55
22181;BME280;11256;50.830;12.834;2023-01-29T04:22:06;98660.41;;;-2.23;77.15
22181;BME280;11256;50.830;12.834;2023-01-29T04:27:24;98658.28;;;-2.28;77.56
22181;BME280;11256;50.830;12.834;2023-01-29T04:32:33;98645.91;;;-2.35;77.40
22181;BME280;11256;50.830;12.834;2023-01-29T04:37:49;98650.03;;;-2.33;77.62
22181;BME280;11256;50.830;12.834;2023-01-29T04:43:15;98633.50;;;-2.43;77.41
22181;BME280;11256;50.830;12.834;2023-01-29T04:48:25;98636.81;;;-2.41;77.34
22181;BME280;11256;50.830;12.834;2023-01-29T04:58:38;98596.38;;;-2.43;76.43
22181;BME280;11256;50.830;12.834;2023-01-29T05:03:42;98584.47;;;-2.47;76.65
22181;BME280;11256;50.830;12.834;2023-01-29T05:08:46;98568.63;;;-2.55;76.65
22181;BME280;11256;50.830;12.834;2023-01-29T05:13:49;98582.53;;;-2.53;76.62
22181;BME280;11256;50.830;12.834;2023-01-29T05:18:50;98586.72;;;-2.58;76.75
22181;BME280;11256;50.830;12.834;2023-01-29T05:24:08;98575.59;;;-2.62;76.55
22181;BME280;11256;50.830;12.834;2023-01-29T05:29:09;98575.84;;;-2.71;76.48
22181;BME280;11256;50.830;12.834;2023-01-29T05:34:11;98579.97;;;-2.69;76.56
22181;BME280;11256;50.830;12.834;2023-01-29T05:39:11;98570.91;;;-2.74;76.60
22181;BME280;11256;50.830;12.834;2023-01-29T05:44:12;98567.25;;;-2.73;76.22
22181;BME280;11256;50.830;12.834;2023-01-29T05:49:12;98538.31;;;-2.83;76.33
22181;BME280;11256;50.830;12.834;2023-01-29T05:54:13;98560.81;;;-2.79;76.24
22181;BME280;11256;50.830;12.834;2023-01-29T05:59:14;98574.44;;;-2.82;75.95
22181;BME280;11256;50.830;12.834;2023-01-29T06:04:15;98576.78;;;-2.87;75.96
22181;BME280;11256;50.830;12.834;2023-01-29T06:09:15;98563.53;;;-2.95;76.06
22181;BME280;11256;50.830;12.834;2023-01-29T06:14:15;98570.03;;;-2.97;75.99
22181;BME280;11256;50.830;12.834;2023-01-29T06:19:16;98581.31;;;-3.03;76.52
22181;BME280;11256;50.830;12.834;2023-01-29T06:24:17;98596.03;;;-3.01;75.95
22181;BME280;11256;50.830;12.834;2023-01-29T06:29:17;98598.06;;;-3.03;76.27
22181;BME280;11256;50.830;12.834;2023-01-29T06:34:17;98604.53;;;-3.05;75.90
22181;BME280;11256;50.830;12.834;2023-01-29T06:39:18;98594.09;;;-3.07;76.11
22181;BME280;11256;50.830;12.834;2023-01-29T06:44:18;98590.59;;;-2.99;75.77
22181;BME280;11256;50.830;12.834;2023-01-29T06:49:18;98583.97;;;-3.03;75.37
22181;BME280;11256;50.830;12.834;2023-01-29T06:54:19;98611.72;;;-2.91;75.33
22181;BME280;11256;50.830;12.834;2023-01-29T06:59:19;98605.25;;;-2.89;75.16
22181;BME280;11256;50.830;12.834;2023-01-29T07:04:19;98615.19;;;-2.83;74.80
22181;BME280;11256;50.830;12.834;2023-01-29T07:09:20;98647.97;;;-2.76;74.38
22181;BME280;11256;50.830;12.834;2023-01-29T07:14:20;98660.34;;;-2.68;74.52
22181;BME280;11256;50.830;12.834;2023-01-29T07:19:20;98660.81;;;-2.65;74.58
22181;BME280;11256;50.830;12.834;2023-01-29T07:24:21;98676.03;;;-2.59;74.66
22181;BME280;11256;50.830;12.834;2023-01-29T07:29:21;98680.13;;;-2.48;74.45
22181;BME280;11256;50.830;12.834;2023-01-29T07:34:21;98680.63;;;-2.45;74.42
22181;BME280;11256;50.830;12.834;2023-01-29T07:39:22;98695.66;;;-2.37;74.03
22181;BME280;11256;50.830;12.834;2023-01-29T07:44:22;98699.78;;;-2.35;74.22
22181;BME280;11256;50.830;12.834;2023-01-29T07:49:22;98691.66;;;-2.33;74.18
22181;BME280;11256;50.830;12.834;2023-01-29T07:54:23;98702.41;;;-2.27;73.98
22181;BME280;11256;50.830;12.834;2023-01-29T07:59:23;98695.22;;;-2.18;74.14
22181;BME280;11256;50.830;12.834;2023-01-29T08:04:24;98684.13;;;-2.22;73.93
22181;BME280;11256;50.830;12.834;2023-01-29T08:09:24;98684.38;;;-2.09;74.07
22181;BME280;11256;50.830;12.834;2023-01-29T08:14:24;98664.06;;;-2.02;74.27
22181;BME280;11256;50.830;12.834;2023-01-29T08:19:25;98665.38;;;-1.98;74.14
22181;BME280;11256;50.830;12.834;2023-01-29T08:24:25;98670.44;;;-1.88;73.96
22181;BME280;11256;50.830;12.834;2023-01-29T08:29:26;98656.19;;;-1.87;73.87
22181;BME280;11256;50.830;12.834;2023-01-29T08:34:26;98634.38;;;-1.83;74.04
22181;BME280;11256;50.830;12.834;2023-01-29T08:39:26;98648.97;;;-1.79;73.91
22181;BME280;11256;50.830;12.834;2023-01-29T08:44:26;98655.91;;;-1.78;74.10
22181;BME280;11256;50.830;12.834;2023-01-29T08:49:27;98637.97;;;-1.76;73.60
22181;BME280;11256;50.830;12.834;2023-01-29T08:54:27;98632.66;;;-1.76;74.26
22181;BME280;11256;50.830;12.834;2023-01-29T08:59:27;98631.00;;;-1.77;74.66
22181;BME280;11256;50.830;12.834;2023-01-29T09:04:28;98632.03;;;-1.78;74.35
22181;BME280;11256;50.830;12.834;2023-01-29T09:09:28;98661.81;;;-1.68;74.53
22181;BME280;11256;50.830;12.834;2023-01-29T09:14:28;98651.09;;;-1.60;74.68
22181;BME280;11256;50.830;12.834;2023-01-29T09:19:29;98639.13;;;-1.56;74.73
22181;BME280;11256;50.830;12.834;2023-01-29T09:24:29;98641.22;;;-1.51;74.61
22181;BME280;11256;50.830;12.834;2023-01-29T09:29:29;98651.84;;;-1.51;74.70
22181;BME280;11256;50.830;12.834;2023-01-29T09:34:30;98639.69;;;-1.46;74.92
22181;BME280;11256;50.830;12.834;2023-01-29T09:39:30;98650.38;;;-1.39;74.96
22181;BME280;11256;50.830;12.834;2023-01-29T09:49:59;98623.56;;;-1.30;74.68
22181;BME280;11256;50.830;12.834;2023-01-29T09:55:28;98617.97;;;-1.20;74.85
22181;BME280;11256;50.830;12.834;2023-01-29T10:00:42;98600.09;;;-1.26;74.71
22181;BME280;11256;50.830;12.834;2023-01-29T10:06:11;98592.31;;;-1.13;74.84
22181;BME280;11256;50.830;12.834;2023-01-29T10:16:50;98563.22;;;-1.15;75.05
22181;BME280;11256;50.830;12.834;2023-01-29T10:27:12;98552.22;;;-0.97;75.34
22181;BME280;11256;50.830;12.834;2023-01-29T10:32:17;98567.25;;;-0.90;75.31
22181;BME280;11256;50.830;12.834;2023-01-29T10:37:21;98560.81;;;-0.81;75.45
22181;BME280;11256;50.830;12.834;2023-01-29T10:42:29;98563.97;;;-0.71;75.41
22181;BME280;11256;50.830;12.834;2023-01-29T10:53:20;98546.78;;;-0.54;75.68
22181;BME280;11256;50.830;12.834;2023-01-29T10:58:44;98535.22;;;-0.40;75.53
22181;BME280;11256;50.830;12.834;2023-01-29T11:03:56;98519.25;;;-0.40;75.15
22181;BME280;11256;50.830;12.834;2023-01-29T11:09:01;98521.66;;;-0.24;75.24
22181;BME280;11256;50.830;12.834;2023-01-29T11:14:08;98501.22;;;-0.17;75.70
22181;BME280;11256;50.830;12.834;2023-01-29T11:19:09;98482.59;;;-0.17;75.34
22181;BME280;11256;50.830;12.834;2023-01-29T11:24:13;98484.16;;;-0.02;74.91
22181;BME280;11256;50.830;12.834;2023-01-29T11:29:39;98471.53;;;0.07;74.57
22181;BME280;11256;50.830;12.834;2023-01-29T11:35:03;98460.50;;;0.16;74.53
22181;BME280;11256;50.830;12.834;2023-01-29T11:45:28;98440.28;;;0.22;74.58
22181;BME280;11256;50.830;12.834;2023-01-29T11:50:33;98443.38;;;0.32;74.85
22181;BME280;11256;50.830;12.834;2023-01-29T11:55:35;98447.91;;;0.38;75.17
22181;BME280;11256;50.830;12.834;2023-01-29T12:00:38;98418.03;;;0.49;75.02
22181;BME280;11256;50.830;12.834;2023-01-29T12:05:39;98394.91;;;0.62;76.22
22181;BME280;11256;50.830;12.834;2023-01-29T12:11:06;98412.78;;;0.68;75.99
22181;BME280;11256;50.830;12.834;2023-01-29T12:16:16;98415.72;;;0.86;76.90
22181;BME280;11256;50.830;12.834;2023-01-29T12:21:42;98425.59;;;0.99;77.06
22181;BME280;11256;50.830;12.834;2023-01-29T12:26:49;98411.66;;;1.23;77.92
22181;BME280;11256;50.830;12.834;2023-01-29T12:32:52;98403.69;;;1.49;79.20
22181;BME280;11256;50.830;12.834;2023-01-29T12:37:37;98389.13;;;1.58;78.28
22181;BME280;11256;50.830;12.834;2023-01-29T12:42:45;98370.38;;;1.71;78.76
22181;BME280;11256;50.830;12.834;2023-01-29T12:47:49;98353.72;;;1.88;78.85
22181;BME280;11256;50.830;12.834;2023-01-29T12:53:11;98340.31;;;1.95;79.57
22181;BME280;11256;50.830;12.834;2023-01-29T12:58:28;98352.00;;;2.13;78.65
22181;BME280;11256;50.830;12.834;2023-01-29T13:03:37;98357.72;;;2.17;78.98
22181;BME280;11256;50.830;12.834;2023-01-29T13:08:44;98356.69;;;2.24;78.22
22181;BME280;11256;50.830;12.834;2023-01-29T13:13:53;98364.22;;;2.47;79.53
22181;BME280;11256;50.830;12.834;2023-01-29T13:18:59;98356.38;;;2.52;78.36
22181;BME280;11256;50.830;12.834;2023-01-29T13:24:03;98354.88;;;2.62;77.82
22181;BME280;11256;50.830;12.834;2023-01-29T13:29:04;98348.44;;;2.70;76.42
22181;BME280;11256;50.830;12.834;2023-01-29T13:34:18;98332.44;;;2.63;76.46
22181;BME280;11256;50.830;12.834;2023-01-29T13:44:32;98327.03;;;2.76;75.68
22181;BME280;11256;50.830;12.834;2023-01-29T13:49:39;98352.09;;;2.82;76.20
22181;BME280;11256;50.830;12.834;2023-01-29T13:54:49;98332.72;;;2.86;75.63
22181;BME280;11256;50.830;12.834;2023-01-29T13:59:53;98326.13;;;2.89;75.88
22181;BME280;11256;50.830;12.834;2023-01-29T14:10:30;98301.41;;;2.87;73.59
22181;BME280;11256;50.830;12.834;2023-01-29T14:15:33;98312.13;;;2.87;73.54
22181;BME280;11256;50.830;12.834;2023-01-29T14:20:56;98313.00;;;2.81;73.32
22181;BME280;11256;50.830;12.834;2023-01-29T14:25:59;98310.97;;;2.76;72.34
22181;BME280;11256;50.830;12.834;2023-01-29T14:31:01;98285.13;;;2.64;72.37
22181;BME280;11256;50.830;12.834;2023-01-29T14:36:20;98287.19;;;2.62;72.67
22181;BME280;11256;50.830;12.834;2023-01-29T14:41:30;98292.19;;;2.52;72.17
22181;BME280;11256;50.830;12.834;2023-01-29T14:51:37;98290.78;;;2.43;71.66
22181;BME280;11256;50.830;12.834;2023-01-29T14:56:56;98312.78;;;2.45;71.39
22181;BME280;11256;50.830;12.834;2023-01-29T15:02:13;98310.78;;;2.34;71.72
22181;BME280;11256;50.830;12.834;2023-01-29T15:07:26;98303.88;;;2.20;72.29
22181;BME280;11256;50.830;12.834;2023-01-29T15:12:49;98308.16;;;2.21;72.10
22181;BME280;11256;50.830;12.834;2023-01-29T15:23:31;98295.31;;;1.98;71.80
22181;BME280;11256;50.830;12.834;2023-01-29T15:28:33;98302.72;;;2.03;71.40
22181;BME280;11256;50.830;12.834;2023-01-29T15:33:35;98286.94;;;1.88;71.35
22181;BME280;11256;50.830;12.834;2023-01-29T15:38:37;98281.00;;;1.80;71.28
22181;BME280;11256;50.830;12.834;2023-01-29T15:43:42;98287.97;;;1.81;70.96
22181;BME280;11256;50.830;12.834;2023-01-29T15:48:44;98294.16;;;1.75;70.85
22181;BME280;11256;50.830;12.834;2023-01-29T15:53:55;98290.06;;;1.66;70.83
22181;BME280;11256;50.830;12.834;2023-01-29T15:58:58;98296.25;;;1.60;71.00
22181;BME280;11256;50.830;12.834;2023-01-29T16:04:00;98283.53;;;1.55;70.91
22181;BME280;11256;50.830;12.834;2023-01-29T16:09:02;98281.28;;;1.52;71.20
22181;BME280;11256;50.830;12.834;2023-01-29T16:14:04;98283.94;;;1.46;71.16
22181;BME280;11256;50.830;12.834;2023-01-29T16:19:18;98268.78;;;1.27;71.47
22181;BME280;11256;50.830;12.834;2023-01-29T16:24:20;98283.19;;;1.26;70.88
22181;BME280;11256;50.830;12.834;2023-01-29T16:29:27;98278.22;;;1.23;70.73
22181;BME280;11256;50.830;12.834;2023-01-29T16:34:47;98276.19;;;1.18;70.76
22181;BME280;11256;50.830;12.834;2023-01-29T16:39:49;98252.59;;;0.96;71.20
22181;BME280;11256;50.830;12.834;2023-01-29T16:45:01;98262.25;;;0.97;71.65
22181;BME280;11256;50.830;12.834;2023-01-29T16:50:25;98263.28;;;0.96;71.10
22181;BME280;11256;50.830;12.834;2023-01-29T16:55:37;98254.47;;;0.89;71.36
22181;BME280;11256;50.830;12.834;2023-01-29T17:00:49;98251.38;;;0.66;71.46
22181;BME280;11256;50.830;12.834;2023-01-29T17:05:52;98249.94;;;0.63;71.58
22181;BME280;11256;50.830;12.834;2023-01-29T17:10:52;98259.97;;;0.61;71.30
22181;BME280;11256;50.830;12.834;2023-01-29T17:15:58;98258.75;;;0.51;71.67
22181;BME280;11256;50.830;12.834;2023-01-29T17:20:58;98268.38;;;0.52;71.27
22181;BME280;11256;50.830;12.834;2023-01-29T17:25:59;98263.84;;;0.46;71.58
22181;BME280;11256;50.830;12.834;2023-01-29T17:30:59;98252.97;;;0.41;71.26
22181;BME280;11256;50.830;12.834;2023-01-29T17:36:00;98253.38;;;0.38;71.40
22181;BME280;11256;50.830;12.834;2023-01-29T17:46:00;98256.44;;;0.22;71.01
22181;BME280;11256;50.830;12.834;2023-01-29T17:51:02;98242.03;;;0.10;71.29
22181;BME280;11256;50.830;12.834;2023-01-29T17:56:03;98256.22;;;0.23;70.71
22181;BME280;11256;50.830;12.834;2023-01-29T18:01:04;98247.38;;;0.16;71.19
22181;BME280;11256;50.830;12.834;2023-01-29T18:06:08;98234.69;;;0.18;70.39
22181;BME280;11256;50.830;12.834;2023-01-29T18:11:10;98235.91;;;0.16;70.79
22181;BME280;11256;50.830;12.834;2023-01-29T18:16:11;98242.44;;;0.13;70.39
22181;BME280;11256;50.830;12.834;2023-01-29T18:21:12;98223.16;;;0.05;70.33
22181;BME280;11256;50.830;12.834;2023-01-29T18:26:14;98225.81;;;0.05;70.38
22181;BME280;11256;50.830;12.834;2023-01-29T18:31:15;98213.75;;;-0.04;70.86
22181;BME280;11256;50.830;12.834;2023-01-29T18:36:15;98218.22;;;-0.05;70.61
22181;BME280;11256;50.830;12.834;2023-01-29T18:41:16;98205.53;;;-0.09;70.87
22181;BME280;11256;50.830;12.834;2023-01-29T18:46:17;98199.41;;;-0.03;70.51
22181;BME280;11256;50.830;12.834;2023-01-29T18:51:17;98188.91;;;-0.17;70.76
22181;BME280;11256;50.830;12.834;2023-01-29T18:56:19;98177.25;;;-0.17;70.13
22181;BME280;11256;50.830;12.834;2023-01-29T19:01:19;98164.53;;;-0.21;70.39
22181;BME280;11256;50.830;12.834;2023-01-29T19:06:20;98162.09;;;-0.16;70.25
22181;BME280;11256;50.830;12.834;2023-01-29T19:11:20;98158.56;;;-0.23;70.36
22181;BME280;11256;50.830;12.834;2023-01-29T19:16:21;98154.28;;;-0.24;70.84
22181;BME280;11256;50.830;12.834;2023-01-29T19:21:21;98139.13;;;-0.30;70.53
22181;BME280;11256;50.830;12.834;2023-01-29T19:26:22;98139.13;;;-0.30;70.33
22181;BME280;11256;50.830;12.834;2023-01-29T19:31:22;98126.81;;;-0.38;70.65
22181;BME280;11256;50.830;12.834;2023-01-29T19:36:23;98122.69;;;-0.40;70.61
22181;BME280;11256;50.830;12.834;2023-01-29T19:41:23;98097.69;;;-0.52;70.73
22181;BME280;11256;50.830;12.834;2023-01-29T19:46:24;98113.47;;;-0.50;70.49
22181;BME280;11256;50.830;12.834;2023-01-29T19:51:24;98106.72;;;-0.53;70.74
22181;BME280;11256;50.830;12.834;2023-01-29T19:56:25;98098.66;;;-0.66;70.85
22181;BME280;11256;50.830;12.834;2023-01-29T20:01:25;98114.25;;;-0.63;71.22
22181;BME280;11256;50.830;12.834;2023-01-29T20:06:28;98107.69;;;-0.73;71.23
22181;BME280;11256;50.830;12.834;2023-01-29T20:11:30;98107.88;;;-0.75;71.11
22181;BME280;11256;50.830;12.834;2023-01-29T20:16:30;98101.69;;;-0.82;71.27
22181;BME280;11256;50.830;12.834;2023-01-29T20:21:31;98108.22;;;-0.84;71.37
22181;BME280;11256;50.830;12.834;2023-01-29T20:26:31;98099.41;;;-0.91;71.26
22181;BME280;11256;50.830;12.834;2023-01-29T20:31:32;98078.31;;;-0.93;71.10
22181;BME280;11256;50.830;12.834;2023-01-29T20:36:32;98073.00;;;-0.99;71.66
22181;BME280;11256;50.830;12.834;2023-01-29T20:41:32;98079.34;;;-1.00;71.36
22181;BME280;11256;50.830;12.834;2023-01-29T20:46:33;98078.28;;;-1.06;71.14
22181;BME280;11256;50.830;12.834;2023-01-29T20:51:37;98063.72;;;-1.10;71.50
22181;BME280;11256;50.830;12.834;2023-01-29T20:56:38;98077.00;;;-1.16;71.48
22181;BME280;11256;50.830;12.834;2023-01-29T21:01:40;98056.72;;;-1.24;71.59
22181;BME280;11256;50.830;12.834;2023-01-29T21:06:41;98040.78;;;-1.24;71.73
22181;BME280;11256;50.830;12.834;2023-01-29T21:11:41;98024.19;;;-1.26;71.50
22181;BME280;11256;50.830;12.834;2023-01-29T21:16:44;98020.50;;;-1.31;71.29
22181;BME280;11256;50.830;12.834;2023-01-29T21:21:44;98007.41;;;-1.33;71.30
22181;BME280;11256;50.830;12.834;2023-01-29T21:26:45;98007.59;;;-1.34;71.73
22181;BME280;11256;50.830;12.834;2023-01-29T21:31:45;98003.72;;;-1.32;71.71
22181;BME280;11256;50.830;12.834;2023-01-29T21:36:45;97996.19;;;-1.35;71.64
22181;BME280;11256;50.830;12.834;2023-01-29T21:41:47;97984.84;;;-1.50;71.60
22181;BME280;11256;50.830;12.834;2023-01-29T21:47:06;97961.19;;;-1.45;71.36
22181;BME280;11256;50.830;12.834;2023-01-29T21:52:13;97951.34;;;-1.44;71.06
22181;BME280;11256;50.830;12.834;2023-01-29T21:57:14;97928.06;;;-1.49;71.29
22181;BME280;11256;50.830;12.834;2023-01-29T22:02:15;97929.69;;;-1.48;71.24
22181;BME280;11256;50.830;12.834;2023-01-29T22:07:15;97924.75;;;-1.57;71.33
22181;BME280;11256;50.830;12.834;2023-01-29T22:12:15;97915.34;;;-1.60;71.54
22181;BME280;11256;50.830;12.834;2023-01-29T22:17:16;97894.09;;;-1.60;71.60
22181;BME280;11256;50.830;12.834;2023-01-29T22:22:26;97879.19;;;-1.61;71.63
22181;BME280;11256;50.830;12.834;2023-01-29T22:27:26;97856.47;;;-1.70;71.86
22181;BME280;11256;50.830;12.834;2023-01-29T22:32:27;97831.97;;;-1.72;71.94
22181;BME280;11256;50.830;12.834;2023-01-29T22:37:27;97815.63;;;-1.62;72.06
22181;BME280;11256;50.830;12.834;2023-01-29T22:42:29;97811.97;;;-1.68;72.37
22181;BME280;11256;50.830;12.834;2023-01-29T22:47:31;97805.41;;;-1.72;72.25
22181;BME280;11256;50.830;12.834;2023-01-29T22:52:32;97801.94;;;-1.66;72.25
22181;BME280;11256;50.830;12.834;2023-01-29T22:57:38;97791.94;;;-1.64;72.06
22181;BME280;11256;50.830;12.834;2023-01-29T23:02:39;97782.97;;;-1.63;72.14
22181;BME280;11256;50.830;12.834;2023-01-29T23:07:39;97760.47;;;-1.67;72.25
22181;BME280;11256;50.830;12.834;2023-01-29T23:12:40;97766.00;;;-1.62;72.11
22181;BME280;11256;50.830;12.834;2023-01-29T23:17:40;97756.81;;;-1.66;72.32
22181;BME280;11256;50.830;12.834;2023-01-29T23:22:40;97756.19;;;-1.68;72.63
22181;BME280;11256;50.830;12.834;2023-01-29T23:27:41;97742.91;;;-1.68;72.26
22181;BME280;11256;50.830;12.834;2023-01-29T23:32:41;97732.28;;;-1.68;72.52
22181;BME280;11256;50.830;12.834;2023-01-29T23:37:41;97734.72;;;-1.66;72.39
22181;BME280;11256;50.830;12.834;2023-01-29T23:42:42;97723.94;;;-1.71;72.55
22181;BME280;11256;50.830;12.834;2023-01-29T23:47:42;97705.31;;;-1.78;72.34
22181;BME280;11256;50.830;12.834;2023-01-29T23:52:42;97706.97;;;-1.70;72.64
22181;BME280;11256;50.830;12.834;2023-01-29T23:57:42;97694.72;;;-1.71;72.75
